YATR weather

Amphitheatre Airport
Victoria, Australia

Public forecast

Using degrees Celsius for public forecast. Weather courtesy of forecast.io.

METAR (pilot weather report)

Closest report is Avalon Airport, 72.3 nm (133.9 km) SE. Retrieved 2019/05/22 10:00 UTC (6 minutes ago):

YMAV 221000Z AUTO 02007KT 9999 // NCD 13/10 Q1027 RF00.0/000.0

TAF (pilot weather forecast)

Closest forecast is Avalon Airport, 72.3 nm (133.9 km) SE. Retrieved 2019/05/22 06:00 UTC (4 hours ago):

TAF YMAV 220518Z 2206/2306 12007KT CAVOK FM220800 35005KT CAVOK FM230300 35015G25KT CAVOK